x

Southern Lake Huron (45149) Weather Station

1:00am - Fri 18th Aug 2017 All times are CDT. -5 hours from GMT.

  • Wind
    9mph, 13mph gusts
  • Sea Temp 69°f
  • Air Temp 71°f
  • Sea Pressure 1004.8mb
  • Southern Lake Huron
  • Southern Lake Huron

More Historic Weather Station data

Upgrade to MSW Pro to gain access to the past 30 days of data for over 8000 Wavebouys and Weather Stations around the globe.

Join

Comparision Forecast

View Surf forecast
   
Fri 08/18 1:00am 9 13 mph 1004.8mb 69f 71f
12:00am 9 11 mph 1005.3mb 69f 71f
Thu 08/17 11:00pm 13 16 mph 1005.5mb 69f 71f
10:00pm 20 25 mph 1005.7mb 69f 71f
9:00pm 11 13 mph 1005.6mb 69f 71f
8:00pm 11 16 mph 1005.2mb 69f 71f
7:00pm 13 13 mph 1005.4mb 69f 72f
6:00pm 13 16 mph 1006mb 69f 71f
5:00pm 16 18 mph 1006.8mb 69f 71f
4:00pm 18 22 mph 1007.4mb 69f 70f
3:00pm 20 25 mph 1008.1mb 69f 70f
2:00pm 18 25 mph 1009.2mb 69f 70f
1:00pm 22 29 mph 1009.6mb 69f 69f
12:00pm 22 27 mph 1010.6mb 69f 69f
11:00am 20 27 mph 1011.3mb 69f 69f
10:00am 20 27 mph 1012mb 69f 69f
9:00am 18 22 mph 1012.1mb 69f 71f
8:00am 22 25 mph 1012.4mb 69f 70f
7:00am 20 25 mph 1013.1mb 69f 70f
6:00am 18 22 mph 1013.3mb 69f 69f
5:00am 18 22 mph 1013.7mb 69f 70f
4:00am 18 20 mph 1014.2mb 69f 70f
3:00am 16 18 mph 1014.7mb 70f 70f
2:00am 13 16 mph 1015.4mb 70f 70f
1:00am 13 13 mph 1015.7mb 70f 70f
12:00am 11 13 mph 1016.4mb 70f 71f
Wed 08/16 11:00pm 7 9 mph 1016.6mb 70f 71f
10:00pm 9 9 mph 1016.8mb 71f 71f
9:00pm 9 11 mph 1016.5mb 71f 71f
8:00pm 7 9 mph 1016.5mb 71f 71f
7:00pm 7 9 mph 1016.3mb 72f 71f
6:00pm 7 9 mph 1016.6mb 73f 72f
5:00pm 4 4 mph 1017.1mb 73f 72f
4:00pm 4 4 mph 1017.6mb 72f 71f
3:00pm 2 4 mph 1018.1mb 71f 71f
2:00pm 2 4 mph 1018.4mb 70f 71f
1:00pm 4 4 mph 1018.5mb 70f 70f
12:00pm 2 4 mph 1019mb 70f 69f
11:00am 2 2 mph 1019.2mb 70f 69f
10:00am  -  2 mph 1019.2mb 70f 70f
9:00am 2 2 mph 1019.1mb 70f 69f
8:00am 2 4 mph 1018.9mb 69f 69f
7:00am 2 4 mph 1018.5mb 69f 69f
6:00am 4 7 mph 1017.8mb 69f 68f
5:00am 4 7 mph 1017.4mb 70f 68f
4:00am 4 7 mph 1017.2mb 70f 68f
3:00am 7 7 mph 1016.6mb 70f 68f
2:00am 7 7 mph 1016.2mb 70f 68f
1:00am 7 7 mph 1016.4mb 70f 69f
12:00am 4 7 mph 1016mb 70f 69f
Tue 08/15 11:00pm 4 7 mph 1015.8mb 70f 69f
10:00pm 7 9 mph 1015.2mb 70f 69f
9:00pm 7 9 mph 1014.9mb 70f 69f
8:00pm 7 9 mph 1014.3mb 70f 69f
7:00pm 7 9 mph 1014mb 70f 69f
6:00pm 9 11 mph 1013.9mb 70f 69f
5:00pm 9 11 mph 1013.7mb 70f 68f
4:00pm 13 13 mph 1013.6mb 70f 68f
3:00pm 11 13 mph 1013.4mb 70f 68f
2:00pm 11 13 mph 1013.6mb 70f 68f
1:00pm 7 9 mph 1013.3mb 70f 68f
12:00pm 7 9 mph 1012.7mb 70f 68f
11:00am 11 13 mph 1012.4mb 70f 68f
10:00am 9 11 mph 1011.9mb 70f 67f
9:00am 11 13 mph 1011.7mb 69f 66f
8:00am 13 16 mph 1011.4mb 69f 67f
7:00am 9 11 mph 1010.9mb 69f 69f
5:00am 13 18 mph 1009.7mb 69f 67f
4:00am 13 16 mph 1009.8mb 69f 68f
3:00am 16 18 mph 1009.8mb 69f 68f
2:00am 13 16 mph 1010.1mb 69f 67f
1:00am 13 13 mph 1010.4mb 70f 67f
12:00am 11 13 mph 1011.1mb 70f 66f
Mon 08/14 11:00pm 16 18 mph 1011.3mb 70f 67f
10:00pm 9 11 mph 1011mb 70f 71f
9:00pm 9 11 mph 1010.1mb 70f 73f
8:00pm 4 7 mph 1010.3mb 71f 71f
6:00pm 7 7 mph 1010.3mb 72f 72f
5:00pm 4 7 mph 1011mb 72f 73f
4:00pm 4 4 mph 1012mb 71f 73f
3:00pm  -  2 mph 1012.9mb 71f 73f
2:00pm 2 4 mph 1013.3mb 70f 71f
1:00pm 4 4 mph 1013.7mb 70f 70f
12:00pm 7 9 mph 1014.3mb 70f 69f
11:00am 9 9 mph 1014.7mb 69f 69f
10:00am 9 11 mph 1015.1mb 69f 69f
9:00am 9 11 mph 1014.9mb 69f 69f
8:00am 9 9 mph 1015.6mb 69f 69f